Time;durP1;ratioP1;P1;durP2;ratioP2;P2;SDS_P1;SDS_P2;PMS_P1;PMS_P2;Temp;Humidity;BMP_temperature;BMP_pressure;BME280_temperature;BME280_humidity;BME280_pressure;Samples;Min_cycle;Max_cycle;Signal;HPM_P1;HPM_P2
2022/06/03 00:01:27;;;;;;;8.35;7.32;;;;;;;;;;5048128;28;20481;-83
2022/06/03 00:04:12;;;;;;;7.75;6.70;;;;;;;;;;5049451;28;20041;-83
2022/06/03 00:06:44;;;;;;;7.93;6.47;;;;;;;;;;5050104;28;20051;-83
2022/06/03 00:09:27;;;;;;;6.70;6.00;;;;;;;;;;5064242;28;20127;-83
2022/06/03 00:12:02;;;;;;;6.13;3.55;;;;;;;;;;5052302;28;20052;-83
2022/06/03 00:14:37;;;;;;;5.57;3.50;;;;;;;;;;5052363;28;20123;-83
2022/06/03 00:17:19;;;;;;;3.95;3.53;;;;;;;;;;5049315;28;20060;-83
2022/06/03 00:19:51;;;;;;;4.45;3.33;;;;;;;;;;5047992;28;20049;-83
2022/06/03 00:22:35;;;;;;;3.83;3.10;;;;;;;;;;5056159;28;20082;-83
2022/06/03 00:25:11;;;;;;;3.55;3.10;;;;;;;;;;5062421;28;20078;-84
2022/06/03 00:27:56;;;;;;;4.68;3.80;;;;;;;;;;5048234;28;20053;-83
2022/06/03 00:30:44;;;;;;;4.30;2.97;;;;;;;;;;5047931;28;20211;-83
2022/06/03 00:33:17;;;;;;;3.05;2.70;;;;;;;;;;5028824;28;20115;-83
2022/06/03 00:35:49;;;;;;;3.35;3.05;;;;;;;;;;5048595;28;20033;-84
2022/06/03 00:38:21;;;;;;;2.63;2.42;;;;;;;;;;5049070;28;20048;-83
2022/06/03 00:41:03;;;;;;;3.45;3.15;;;;;;;;;;5048115;28;20067;-83
2022/06/03 00:43:29;;;;;;;3.35;3.05;;;;;;;;;;5054534;28;20046;-84
2022/06/03 00:45:59;;;;;;;4.63;2.92;;;;;;;;;;5057857;28;20057;-83
2022/06/03 00:48:29;;;;;;;3.72;3.35;;;;;;;;;;5052588;28;20076;-83
2022/06/03 00:51:04;;;;;;;3.20;2.85;;;;;;;;;;5051215;28;20131;-82
2022/06/03 00:53:48;;;;;;;4.43;3.17;;;;;;;;;;5052164;28;20057;-83
2022/06/03 00:56:53;;;;;;;4.90;3.50;;;;;;;;;;5058242;28;20409;-84
2022/06/03 00:59:37;;;;;;;5.65;4.20;;;;;;;;;;4994436;28;20403;-83
2022/06/03 01:02:06;;;;;;;6.20;4.60;;;;;;;;;;5012714;28;20045;-83
2022/06/03 01:04:32;;;;;;;6.78;5.43;;;;;;;;;;5012789;28;20480;-84
2022/06/03 01:07:06;;;;;;;5.55;5.05;;;;;;;;;;5004040;28;20490;-83
2022/06/03 01:09:45;;;;;;;6.75;5.78;;;;;;;;;;5011659;28;20502;-83
2022/06/03 01:12:28;;;;;;;6.53;5.38;;;;;;;;;;5010218;28;20072;-83
2022/06/03 01:15:17;;;;;;;8.45;5.50;;;;;;;;;;5006242;28;20089;-84
2022/06/03 01:18:01;;;;;;;2.35;1.92;;;;;;;;;;5028940;28;20053;-83
2022/06/03 01:20:45;;;;;;;2.85;2.30;;;;;;;;;;5029978;28;20073;-83
2022/06/03 01:23:20;;;;;;;4.20;2.60;;;;;;;;;;5005172;28;20058;-83
2022/06/03 01:26:05;;;;;;;1.70;1.60;;;;;;;;;;5005242;28;20057;-84
2022/06/03 01:28:50;;;;;;;2.50;2.20;;;;;;;;;;5012780;28;20064;-83
2022/06/03 01:31:34;;;;;;;3.50;2.60;;;;;;;;;;5063439;28;20080;-83
2022/06/03 01:34:03;;;;;;;4.10;3.45;;;;;;;;;;5045778;28;20041;-83
2022/06/03 01:36:41;;;;;;;5.10;3.92;;;;;;;;;;5068720;28;20046;-83
2022/06/03 01:39:26;;;;;;;4.80;4.30;;;;;;;;;;5070491;28;20098;-83
2022/06/03 01:42:11;;;;;;;5.38;4.75;;;;;;;;;;5070733;28;20143;-83
2022/06/03 01:44:44;;;;;;;7.20;4.68;;;;;;;;;;5061900;28;20389;-83
2022/06/03 01:47:42;;;;;;;3.95;3.17;;;;;;;;;;5061056;28;20057;-83
2022/06/03 01:50:17;;;;;;;3.38;2.42;;;;;;;;;;5034110;28;20048;-83
2022/06/03 01:52:58;;;;;;;2.17;1.70;;;;;;;;;;5050093;28;20421;-83
2022/06/03 01:55:43;;;;;;;1.65;1.50;;;;;;;;;;5071910;28;20052;-83
2022/06/03 01:58:29;;;;;;;1.08;1.05;;;;;;;;;;5071500;28;20041;-83
2022/06/03 02:01:03;;;;;;;1.80;1.52;;;;;;;;;;5068024;28;20053;-84
2022/06/03 02:03:30;;;;;;;2.35;2.08;;;;;;;;;;5055618;28;20165;-83
2022/06/03 02:06:03;;;;;;;5.32;2.60;;;;;;;;;;5070411;28;20052;-83
2022/06/03 02:08:42;;;;;;;2.97;2.67;;;;;;;;;;5063707;28;20440;-83
2022/06/03 02:11:27;;;;;;;4.15;3.33;;;;;;;;;;5049945;28;20135;-83
2022/06/03 02:14:12;;;;;;;6.13;4.60;;;;;;;;;;5058141;28;20493;-83
2022/06/03 02:16:45;;;;;;;8.95;5.72;;;;;;;;;;5069731;28;20386;-83
2022/06/03 02:19:29;;;;;;;8.25;6.85;;;;;;;;;;5052613;28;20123;-83
2022/06/03 02:22:04;;;;;;;9.80;7.40;;;;;;;;;;5071307;28;20045;-83
2022/06/03 02:24:30;;;;;;;10.70;7.15;;;;;;;;;;5051637;28;20048;-83
2022/06/03 02:27:18;;;;;;;10.13;7.65;;;;;;;;;;5051079;28;20400;-83
2022/06/03 02:33:06;;;;;;;9.85;7.53;;;;;;;;;;5030768;28;20148;-83
2022/06/03 02:35:42;;;;;;;9.70;7.07;;;;;;;;;;5031626;28;20049;-83
2022/06/03 02:38:11;;;;;;;9.27;7.10;;;;;;;;;;5015647;28;20052;-83
2022/06/03 02:40:54;;;;;;;10.00;8.18;;;;;;;;;;5048356;28;20477;-83
2022/06/03 02:43:35;;;;;;;10.82;7.95;;;;;;;;;;5041364;28;20466;-83
2022/06/03 02:46:20;;;;;;;9.80;7.57;;;;;;;;;;5022721;28;20132;-83
2022/06/03 02:49:02;;;;;;;8.75;7.90;;;;;;;;;;5011951;28;20053;-83
2022/06/03 02:51:28;;;;;;;5.05;4.20;;;;;;;;;;5028202;28;20060;-83
2022/06/03 02:53:54;;;;;;;6.95;4.50;;;;;;;;;;5016853;28;20067;-83
2022/06/03 02:56:39;;;;;;;6.97;5.25;;;;;;;;;;5048114;28;20343;-83
2022/06/03 02:59:24;;;;;;;6.10;4.65;;;;;;;;;;5047290;28;20508;-83
2022/06/03 03:01:50;;;;;;;3.85;3.45;;;;;;;;;;5038543;28;20054;-84
2022/06/03 03:04:16;;;;;;;4.30;3.50;;;;;;;;;;5004327;28;20041;-83
2022/06/03 03:07:09;;;;;;;3.40;2.78;;;;;;;;;;5028649;28;20049;-83
2022/06/03 03:09:35;;;;;;;4.40;2.88;;;;;;;;;;5030359;28;20088;-83
2022/06/03 03:12:07;;;;;;;4.05;3.22;;;;;;;;;;5036685;28;20064;-83
2022/06/03 03:14:57;;;;;;;4.00;3.60;;;;;;;;;;5058155;28;20048;-83
2022/06/03 03:17:26;;;;;;;4.47;3.60;;;;;;;;;;5069357;28;20340;-83
2022/06/03 03:20:11;;;;;;;5.57;4.78;;;;;;;;;;5068806;28;20080;-83
2022/06/03 03:22:47;;;;;;;6.85;5.10;;;;;;;;;;5061847;28;20073;-84
2022/06/03 03:25:32;;;;;;;7.65;6.18;;;;;;;;;;5064854;28;20052;-83
2022/06/03 03:28:16;;;;;;;7.20;5.47;;;;;;;;;;5069740;28;20101;-83
2022/06/03 03:30:49;;;;;;;7.85;6.43;;;;;;;;;;5068360;28;20051;-83
2022/06/03 03:33:23;;;;;;;10.25;7.45;;;;;;;;;;5032011;28;20171;-83
2022/06/03 03:36:07;;;;;;;9.80;6.85;;;;;;;;;;5028938;28;20405;-83
2022/06/03 03:38:52;;;;;;;8.63;7.72;;;;;;;;;;5028822;28;20052;-83
2022/06/03 03:41:24;;;;;;;10.63;8.10;;;;;;;;;;5028934;28;20222;-83
2022/06/03 03:43:53;;;;;;;12.00;8.00;;;;;;;;;;5041028;28;20048;-83
2022/06/03 03:46:19;;;;;;;10.40;8.55;;;;;;;;;;5068610;28;20049;-83
2022/06/03 03:49:05;;;;;;;12.15;8.73;;;;;;;;;;5068604;28;20040;-83
2022/06/03 03:51:31;;;;;;;9.27;7.70;;;;;;;;;;5067962;28;20080;-83
2022/06/03 03:54:00;;;;;;;9.00;7.75;;;;;;;;;;5061529;28;20056;-84
2022/06/03 03:56:32;;;;;;;10.18;8.45;;;;;;;;;;5068096;28;20103;-83
2022/06/03 03:59:19;;;;;;;8.85;7.63;;;;;;;;;;5065914;28;20131;-83
2022/06/03 04:01:45;;;;;;;9.85;8.02;;;;;;;;;;5048433;28;20155;-83
2022/06/03 04:04:11;;;;;;;10.07;8.07;;;;;;;;;;5053995;28;20041;-83
2022/06/03 04:06:56;;;;;;;10.63;8.15;;;;;;;;;;5068139;28;20451;-83
2022/06/03 04:09:42;;;;;;;10.73;8.20;;;;;;;;;;5068545;28;20048;-84
2022/06/03 04:12:14;;;;;;;11.10;8.60;;;;;;;;;;5028176;28;20049;-83
2022/06/03 04:14:53;;;;;;;8.27;6.78;;;;;;;;;;5053397;28;20428;-83
2022/06/03 04:17:31;;;;;;;10.55;7.70;;;;;;;;;;5061956;28;20049;-83
2022/06/03 04:20:22;;;;;;;13.43;8.05;;;;;;;;;;5051593;28;20258;-83
2022/06/03 04:23:03;;;;;;;10.85;8.73;;;;;;;;;;5033723;28;20401;-83
2022/06/03 04:25:50;;;;;;;14.18;8.57;;;;;;;;;;5051201;28;20088;-83
2022/06/03 04:28:34;;;;;;;11.93;9.00;;;;;;;;;;5067544;28;20055;-83
2022/06/03 04:31:16;;;;;;;10.52;8.68;;;;;;;;;;5056251;28;20053;-83
2022/06/03 04:33:51;;;;;;;13.20;9.27;;;;;;;;;;5070930;28;20044;-83
2022/06/03 04:36:17;;;;;;;13.45;8.45;;;;;;;;;;5053808;28;20056;-83
2022/06/03 04:39:02;;;;;;;12.20;9.50;;;;;;;;;;5073279;28;20503;-83
2022/06/03 04:41:28;;;;;;;12.95;9.23;;;;;;;;;;5073383;28;20045;-84
2022/06/03 04:44:26;;;;;;;12.43;8.85;;;;;;;;;;5064174;28;20052;-83
2022/06/03 04:46:55;;;;;;;16.08;9.13;;;;;;;;;;5057973;28;20051;-84
2022/06/03 04:49:24;;;;;;;12.65;8.48;;;;;;;;;;5068419;28;20367;-83
2022/06/03 04:51:59;;;;;;;10.00;8.00;;;;;;;;;;5053144;28;20061;-83
2022/06/03 04:54:48;;;;;;;12.15;8.85;;;;;;;;;;5050396;28;20056;-84
2022/06/03 04:57:33;;;;;;;11.32;8.95;;;;;;;;;;5018914;28;20157;-84
2022/06/03 05:00:06;;;;;;;8.88;7.72;;;;;;;;;;5001715;28;20054;-84
2022/06/03 05:02:50;;;;;;;12.82;8.60;;;;;;;;;;5010746;28;20550;-83
2022/06/03 05:05:49;;;;;;;9.32;8.07;;;;;;;;;;4993212;28;20561;-83
2022/06/03 05:08:35;;;;;;;11.55;8.18;;;;;;;;;;5010752;28;20060;-85
2022/06/03 05:11:19;;;;;;;9.07;7.78;;;;;;;;;;5028006;28;20061;-84
2022/06/03 05:14:08;;;;;;;9.07;7.95;;;;;;;;;;5008292;28;20546;-83
2022/06/03 05:16:53;;;;;;;10.15;8.00;;;;;;;;;;4997025;28;20041;-84
2022/06/03 05:19:25;;;;;;;10.82;7.55;;;;;;;;;;5030273;28;20106;-83
2022/06/03 05:22:13;;;;;;;10.38;7.47;;;;;;;;;;5030281;28;20159;-83
2022/06/03 05:25:00;;;;;;;9.82;7.68;;;;;;;;;;4993094;28;20089;-83
2022/06/03 05:27:26;;;;;;;9.85;7.60;;;;;;;;;;5003667;28;20602;-83
2022/06/03 05:29:57;;;;;;;11.38;6.93;;;;;;;;;;4999173;28;20108;-84
2022/06/03 05:32:35;;;;;;;9.25;7.53;;;;;;;;;;4993220;28;20065;-84
2022/06/03 05:35:20;;;;;;;8.15;6.85;;;;;;;;;;5043350;28;20054;-84
2022/06/03 05:37:52;;;;;;;9.63;7.38;;;;;;;;;;5061647;28;20056;-86
2022/06/03 05:40:38;;;;;;;9.45;6.75;;;;;;;;;;5070952;28;20075;-95
2022/06/03 05:43:04;;;;;;;7.78;6.15;;;;;;;;;;5073032;28;20041;-85
2022/06/03 05:45:45;;;;;;;9.20;5.97;;;;;;;;;;5052682;28;20049;-85
2022/06/03 05:48:28;;;;;;;7.90;6.10;;;;;;;;;;5062891;28;20599;-85
2022/06/03 05:51:01;;;;;;;8.05;6.10;;;;;;;;;;5050427;28;20102;-86
2022/06/03 05:53:30;;;;;;;6.78;6.07;;;;;;;;;;5049602;28;20052;-86
2022/06/03 05:56:04;;;;;;;7.57;5.95;;;;;;;;;;5050496;28;20049;-86
2022/06/03 05:58:41;;;;;;;6.40;5.10;;;;;;;;;;5068889;28;20048;-85
2022/06/03 06:01:07;;;;;;;7.38;5.32;;;;;;;;;;5051484;28;20071;-85
2022/06/03 06:03:38;;;;;;;6.05;5.43;;;;;;;;;;5050632;28;20512;-85
2022/06/03 06:06:25;;;;;;;8.43;5.53;;;;;;;;;;5050975;28;20124;-85
2022/06/03 06:09:20;;;;;;;10.75;5.35;;;;;;;;;;5051370;28;20052;-85
2022/06/03 06:12:09;;;;;;;5.80;4.90;;;;;;;;;;5067120;28;20610;-85
2022/06/03 06:14:45;;;;;;;5.75;5.07;;;;;;;;;;5057780;28;20136;-85
2022/06/03 06:17:23;;;;;;;6.40;4.80;;;;;;;;;;5056740;28;20627;-86
2022/06/03 06:19:54;;;;;;;4.80;4.30;;;;;;;;;;5070357;28;20044;-86
2022/06/03 06:22:23;;;;;;;6.05;4.15;;;;;;;;;;5069858;28;20533;-86
2022/06/03 06:24:56;;;;;;;5.72;4.05;;;;;;;;;;5058506;28;20101;-85
2022/06/03 06:27:28;;;;;;;4.00;3.38;;;;;;;;;;5058147;28;20123;-87
2022/06/03 06:30:00;;;;;;;5.00;3.75;;;;;;;;;;5050070;28;20219;-86
2022/06/03 06:32:42;;;;;;;5.75;3.20;;;;;;;;;;5050946;28;20481;-87
2022/06/03 06:35:14;;;;;;;4.30;3.38;;;;;;;;;;5032320;28;20049;-86
2022/06/03 06:37:55;;;;;;;3.33;3.00;;;;;;;;;;5058341;28;20556;-86
2022/06/03 06:40:54;;;;;;;4.38;3.60;;;;;;;;;;5062332;28;20045;-86
2022/06/03 06:43:32;;;;;;;3.58;3.10;;;;;;;;;;5018064;28;20059;-86
2022/06/03 06:46:18;;;;;;;4.50;2.95;;;;;;;;;;5036661;28;20049;-86
2022/06/03 06:48:44;;;;;;;;;;;;;;;;;;5031667;28;20045;-86
2022/06/03 06:51:25;;;;;;;5.55;3.05;;;;;;;;;;5047158;28;20012;-86
2022/06/03 06:53:55;;;;;;;4.60;3.08;;;;;;;;;;5048199;28;20053;-86
2022/06/03 06:56:23;;;;;;;3.75;3.20;;;;;;;;;;5033907;28;20041;-86
2022/06/03 06:58:56;;;;;;;4.47;3.20;;;;;;;;;;5023944;28;20052;-86
2022/06/03 07:01:25;;;;;;;6.88;3.28;;;;;;;;;;5055606;28;20049;-84
2022/06/03 07:03:56;;;;;;;3.70;3.35;;;;;;;;;;5037940;28;20044;-83
2022/06/03 07:06:41;;;;;;;5.03;3.20;;;;;;;;;;5029236;28;20088;-84
2022/06/03 07:09:26;;;;;;;4.28;3.50;;;;;;;;;;5032318;28;20064;-87
2022/06/03 07:11:57;;;;;;;4.43;3.10;;;;;;;;;;5044125;28;20064;-85
2022/06/03 07:14:28;;;;;;;3.63;2.80;;;;;;;;;;5050133;28;20037;-88
2022/06/03 07:19:51;;;;;;;4.68;3.20;;;;;;;;;;5029133;28;20069;-87
2022/06/03 07:22:27;;;;;;;4.00;2.95;;;;;;;;;;5041205;28;20501;-86
2022/06/03 07:24:56;;;;;;;5.07;2.97;;;;;;;;;;5049913;28;20453;-86
2022/06/03 07:27:36;;;;;;;3.63;2.60;;;;;;;;;;5048742;28;20102;-88
2022/06/03 07:30:06;;;;;;;3.05;2.53;;;;;;;;;;5049034;28;20400;-87
2022/06/03 07:32:38;;;;;;;3.53;2.50;;;;;;;;;;5050384;28;20055;-89
2022/06/03 07:35:07;;;;;;;4.53;2.45;;;;;;;;;;5048192;28;20060;-87
2022/06/03 07:38:00;;;;;;;4.60;2.45;;;;;;;;;;5052442;28;20089;-87
2022/06/03 07:40:27;;;;;;;3.60;2.70;;;;;;;;;;5051809;28;20096;-84
2022/06/03 07:43:05;;;;;;;3.72;2.50;;;;;;;;;;5029143;28;20434;-89
2022/06/03 07:45:44;;;;;;;3.75;2.40;;;;;;;;;;5028868;28;20049;-92
2022/06/03 07:48:15;;;;;;;5.28;2.80;;;;;;;;;;5043124;28;20406;-85
2022/06/03 07:50:45;;;;;;;4.13;2.50;;;;;;;;;;5063043;28;20048;-85
2022/06/03 07:53:17;;;;;;;6.28;2.70;;;;;;;;;;5066379;28;20109;-84
2022/06/03 07:55:44;;;;;;;3.25;2.60;;;;;;;;;;5054180;28;20056;-85
2022/06/03 07:58:15;;;;;;;4.10;2.35;;;;;;;;;;5048409;28;20087;-85
2022/06/03 08:00:45;;;;;;;3.13;2.30;;;;;;;;;;5049602;28;20102;-85
2022/06/03 08:03:17;;;;;;;4.40;2.55;;;;;;;;;;5047945;28;20084;-85
2022/06/03 08:05:44;;;;;;;2.50;2.30;;;;;;;;;;5060270;28;20439;-85
2022/06/03 08:10:57;;;;;;;2.83;2.23;;;;;;;;;;5063587;28;20041;-85
2022/06/03 08:13:23;;;;;;;2.20;1.92;;;;;;;;;;5069795;28;20044;-85
2022/06/03 08:15:53;;;;;;;5.60;2.35;;;;;;;;;;5069675;28;20044;-84
2022/06/03 08:18:20;;;;;;;2.70;2.00;;;;;;;;;;5065745;28;20115;-85
2022/06/03 08:20:52;;;;;;;2.20;2.00;;;;;;;;;;5046084;28;20055;-85
2022/06/03 08:23:19;;;;;;;2.40;2.03;;;;;;;;;;5051492;28;20041;-85
2022/06/03 08:25:47;;;;;;;3.55;2.03;;;;;;;;;;5044510;28;20068;-85
2022/06/03 08:28:15;;;;;;;2.70;1.92;;;;;;;;;;5058103;28;20470;-85
2022/06/03 08:30:45;;;;;;;3.53;2.50;;;;;;;;;;5047891;28;20393;-85
2022/06/03 08:33:13;;;;;;;3.67;2.10;;;;;;;;;;5054685;28;20493;-85
2022/06/03 08:35:43;;;;;;;2.58;1.83;;;;;;;;;;5044747;28;20057;-85
2022/06/03 08:38:18;;;;;;;2.22;1.90;;;;;;;;;;5043233;28;20053;-86
2022/06/03 08:40:59;;;;;;;3.03;1.80;;;;;;;;;;5036915;28;20072;-86
2022/06/03 08:43:44;;;;;;;4.20;2.05;;;;;;;;;;5048552;28;20903;-85
2022/06/03 08:46:32;;;;;;;2.28;1.90;;;;;;;;;;5045791;28;20482;-86
2022/06/03 08:49:01;;;;;;;2.85;1.88;;;;;;;;;;5032507;28;20106;-85
2022/06/03 08:51:34;;;;;;;3.45;2.20;;;;;;;;;;5057062;28;20056;-86
2022/06/03 08:54:02;;;;;;;3.78;2.28;;;;;;;;;;5048151;28;20049;-84
2022/06/03 08:56:33;;;;;;;3.05;2.00;;;;;;;;;;5047927;28;20440;-84
2022/06/03 08:59:01;;;;;;;2.63;2.08;;;;;;;;;;5047073;28;20433;-84
2022/06/03 09:01:46;;;;;;;2.85;2.00;;;;;;;;;;5041476;28;20059;-84
2022/06/03 09:04:21;;;;;;;2.10;1.80;;;;;;;;;;5060485;28;20131;-84
2022/06/03 09:06:50;;;;;;;2.00;1.70;;;;;;;;;;5051049;28;20099;-84
2022/06/03 09:09:19;;;;;;;2.50;1.95;;;;;;;;;;5068043;28;20076;-84
2022/06/03 09:11:48;;;;;;;1.70;1.50;;;;;;;;;;5072833;28;20052;-84
2022/06/03 09:14:22;;;;;;;3.17;1.92;;;;;;;;;;5062723;28;20041;-84
2022/06/03 09:16:51;;;;;;;2.58;1.83;;;;;;;;;;5050465;28;20509;-84
2022/06/03 09:19:25;;;;;;;3.22;1.80;;;;;;;;;;5068065;28;20127;-84
2022/06/03 09:21:52;;;;;;;2.72;1.88;;;;;;;;;;5058245;28;20049;-86
2022/06/03 09:24:21;;;;;;;2.38;1.98;;;;;;;;;;5052897;28;20098;-84
2022/06/03 09:26:51;;;;;;;2.72;2.15;;;;;;;;;;5050220;28;20071;-84
2022/06/03 09:29:17;;;;;;;3.42;2.30;;;;;;;;;;5061471;28;20526;-84
2022/06/03 09:32:03;;;;;;;5.57;3.53;;;;;;;;;;5059743;28;20041;-84
2022/06/03 09:34:38;;;;;;;5.85;3.88;;;;;;;;;;5049097;28;20405;-84
2022/06/03 09:37:04;;;;;;;4.65;3.75;;;;;;;;;;5051435;28;20090;-84
2022/06/03 09:39:32;;;;;;;6.03;3.85;;;;;;;;;;5034412;28;20052;-85
2022/06/03 09:41:58;;;;;;;6.53;3.90;;;;;;;;;;5055226;28;20090;-85
2022/06/03 09:44:25;;;;;;;7.75;4.07;;;;;;;;;;5047737;28;20048;-85
2022/06/03 09:46:58;;;;;;;6.78;4.22;;;;;;;;;;5052182;28;20059;-85
2022/06/03 09:49:25;;;;;;;7.28;4.53;;;;;;;;;;5050831;28;20501;-86
2022/06/03 09:51:57;;;;;;;5.30;4.20;;;;;;;;;;5051960;28;20092;-84
2022/06/03 09:54:24;;;;;;;4.95;4.20;;;;;;;;;;5049846;28;20064;-85
2022/06/03 09:56:52;;;;;;;4.80;4.20;;;;;;;;;;5057812;28;20059;-85
2022/06/03 09:59:19;;;;;;;6.07;4.10;;;;;;;;;;5071466;28;20115;-85
2022/06/03 10:01:46;;;;;;;7.55;3.80;;;;;;;;;;5070795;28;20340;-86
2022/06/03 10:04:12;;;;;;;4.47;3.70;;;;;;;;;;5055586;28;20077;-85
2022/06/03 10:06:49;;;;;;;5.32;3.80;;;;;;;;;;5054344;28;20044;-85
2022/06/03 10:17:58;;;;;;;6.80;4.15;;;;;;;;;;5051578;28;20049;-86
2022/06/03 10:20:25;;;;;;;4.20;2.90;;;;;;;;;;5050068;28;20056;-85
2022/06/03 10:22:51;;;;;;;5.40;3.55;;;;;;;;;;5050588;28;20045;-86
2022/06/03 10:25:18;;;;;;;4.85;3.88;;;;;;;;;;5049235;28;20045;-85
2022/06/03 10:27:45;;;;;;;4.63;3.92;;;;;;;;;;5049081;28;20037;-86
2022/06/03 10:30:11;;;;;;;4.20;3.45;;;;;;;;;;5051278;28;20347;-84
2022/06/03 10:32:38;;;;;;;4.47;3.50;;;;;;;;;;5050550;28;20032;-85
2022/06/03 10:35:05;;;;;;;4.20;3.17;;;;;;;;;;5051572;28;20045;-85
2022/06/03 10:37:34;;;;;;;5.22;3.17;;;;;;;;;;5071130;28;20074;-85
2022/06/03 10:40:00;;;;;;;5.55;2.95;;;;;;;;;;5070918;28;20057;-85
2022/06/03 10:42:26;;;;;;;3.30;2.60;;;;;;;;;;5069301;28;20045;-85
2022/06/03 10:44:56;;;;;;;4.43;3.15;;;;;;;;;;5049972;28;20056;-85
2022/06/03 10:47:33;;;;;;;3.63;3.28;;;;;;;;;;5029865;28;20041;-85
2022/06/03 10:50:01;;;;;;;4.03;2.80;;;;;;;;;;5029568;28;20049;-85
2022/06/03 11:01:08;;;;;;;5.57;3.00;;;;;;;;;;5057122;28;20053;-85
2022/06/03 11:03:37;;;;;;;5.47;3.10;;;;;;;;;;5052996;28;20043;-84
2022/06/03 11:06:07;;;;;;;6.65;3.30;;;;;;;;;;5034416;28;20055;-85
2022/06/03 11:08:53;;;;;;;4.07;3.00;;;;;;;;;;5050503;28;20517;-84
2022/06/03 11:11:19;;;;;;;;;;;;;;;;;;5051285;28;20452;-85
2022/06/03 11:13:45;;;;;;;3.85;2.72;;;;;;;;;;5050369;28;20373;-85
2022/06/03 11:16:14;;;;;;;5.53;2.53;;;;;;;;;;5048820;28;20053;-85
2022/06/03 11:18:41;;;;;;;6.00;2.88;;;;;;;;;;5050273;28;20044;-85
2022/06/03 11:21:19;;;;;;;4.65;2.58;;;;;;;;;;5050878;28;20131;-85
2022/06/03 11:23:45;;;;;;;3.15;2.47;;;;;;;;;;5050371;28;20045;-85
2022/06/03 11:26:11;;;;;;;4.13;2.67;;;;;;;;;;5048363;28;20466;-85
2022/06/03 11:28:40;;;;;;;4.68;2.78;;;;;;;;;;5048274;28;20052;-85
2022/06/03 11:31:09;;;;;;;4.82;2.80;;;;;;;;;;5050697;28;20071;-85
2022/06/03 11:33:37;;;;;;;4.60;2.60;;;;;;;;;;5050155;28;20074;-85
2022/06/03 11:36:16;;;;;;;5.00;2.80;;;;;;;;;;5048709;28;20053;-85
2022/06/03 11:38:45;;;;;;;5.10;2.88;;;;;;;;;;5048705;28;20041;-85
2022/06/03 11:41:14;;;;;;;5.28;2.72;;;;;;;;;;5050409;28;20075;-85
2022/06/03 11:43:45;;;;;;;4.45;2.70;;;;;;;;;;5048658;28;20134;-85
2022/06/03 11:46:14;;;;;;;7.38;3.00;;;;;;;;;;5049651;28;20033;-92
2022/06/03 11:48:41;;;;;;;3.88;2.50;;;;;;;;;;5050045;28;20573;-88
2022/06/03 11:51:09;;;;;;;6.18;3.10;;;;;;;;;;5032925;28;20045;-88
2022/06/03 11:53:39;;;;;;;7.25;2.90;;;;;;;;;;5048596;28;20060;-88
2022/06/03 11:56:08;;;;;;;7.47;2.90;;;;;;;;;;5048255;28;20037;-89
2022/06/03 11:58:41;;;;;;;6.65;3.05;;;;;;;;;;5061127;28;20103;-87
2022/06/03 12:01:12;;;;;;;5.03;3.38;;;;;;;;;;5054947;28;20048;-85
2022/06/03 12:03:42;;;;;;;8.05;3.20;;;;;;;;;;5048518;28;20067;-88
2022/06/03 12:06:14;;;;;;;6.15;3.10;;;;;;;;;;5049056;28;20087;-86
2022/06/03 12:08:50;;;;;;;5.43;3.30;;;;;;;;;;5081039;28;20102;-85
2022/06/03 12:14:42;;;;;;;4.22;2.88;;;;;;;;;;5048036;28;20048;-85
2022/06/03 12:17:11;;;;;;;4.28;3.05;;;;;;;;;;5049675;28;20041;-88
2022/06/03 12:19:39;;;;;;;8.57;2.88;;;;;;;;;;5029999;28;20088;-88
2022/06/03 12:22:28;;;;;;;5.38;2.80;;;;;;;;;;5047049;28;20041;-90
2022/06/03 12:24:54;;;;;;;5.03;2.88;;;;;;;;;;5045541;28;20049;-86
2022/06/03 12:27:26;;;;;;;6.32;2.97;;;;;;;;;;5067049;28;20040;-91
2022/06/03 12:30:09;;;;;;;4.53;2.80;;;;;;;;;;5067093;28;20048;-85
2022/06/03 12:32:37;;;;;;;9.68;2.92;;;;;;;;;;5049171;28;20049;-90
2022/06/03 12:35:21;;;;;;;4.93;2.95;;;;;;;;;;5050887;28;20042;-89
2022/06/03 12:38:07;;;;;;;4.25;2.70;;;;;;;;;;5048504;28;20057;-90
2022/06/03 12:40:37;;;;;;;3.83;2.55;;;;;;;;;;5031608;28;20052;-86
2022/06/03 12:43:21;;;;;;;3.55;2.38;;;;;;;;;;5062781;28;20048;-86
2022/06/03 12:45:58;;;;;;;3.30;2.20;;;;;;;;;;5046491;28;20524;-85
2022/06/03 12:48:36;;;;;;;4.20;2.10;;;;;;;;;;5052073;28;20049;-86
2022/06/03 12:51:21;;;;;;;4.45;2.30;;;;;;;;;;5053144;28;20045;-85
2022/06/03 12:53:48;;;;;;;4.82;2.10;;;;;;;;;;5044388;28;20107;-88
2022/06/03 12:56:40;;;;;;;3.22;2.10;;;;;;;;;;5033375;28;20046;-91
2022/06/03 12:59:15;;;;;;;3.10;1.90;;;;;;;;;;5031717;28;20060;-89
2022/06/03 13:01:43;;;;;;;3.75;2.03;;;;;;;;;;5049147;28;20045;-89
2022/06/03 13:04:28;;;;;;;4.32;2.10;;;;;;;;;;5066189;28;20116;-93
2022/06/03 13:07:11;;;;;;;3.25;1.80;;;;;;;;;;5052311;28;20045;-85
2022/06/03 13:09:51;;;;;;;3.58;2.00;;;;;;;;;;5051513;28;20535;-85
2022/06/03 13:12:19;;;;;;;3.53;2.20;;;;;;;;;;5070164;28;20048;-85
2022/06/03 13:14:45;;;;;;;3.78;1.88;;;;;;;;;;5055801;28;20394;-85
2022/06/03 13:17:31;;;;;;;4.68;1.85;;;;;;;;;;5053764;28;20056;-85
2022/06/03 13:19:59;;;;;;;3.38;1.80;;;;;;;;;;5051495;28;20535;-85
2022/06/03 13:22:30;;;;;;;3.13;2.20;;;;;;;;;;5051081;28;20037;-85
2022/06/03 13:25:14;;;;;;;4.00;1.95;;;;;;;;;;5047968;28;20470;-85
2022/06/03 13:27:40;;;;;;;2.78;2.00;;;;;;;;;;5052450;28;20076;-85
2022/06/03 13:30:11;;;;;;;3.28;1.92;;;;;;;;;;5039509;28;20052;-86
2022/06/03 13:32:37;;;;;;;2.50;1.80;;;;;;;;;;5050935;28;20638;-87
2022/06/03 13:35:30;;;;;;;3.10;1.67;;;;;;;;;;5050711;28;20482;-84
2022/06/03 13:37:56;;;;;;;3.95;1.98;;;;;;;;;;5049208;28;20052;-85
2022/06/03 13:40:25;;;;;;;3.60;2.35;;;;;;;;;;5059294;28;20390;-85
2022/06/03 13:43:00;;;;;;;4.68;2.28;;;;;;;;;;5048938;28;20425;-85
2022/06/03 13:45:28;;;;;;;2.97;2.30;;;;;;;;;;5072180;28;20439;-85
2022/06/03 13:47:56;;;;;;;6.70;2.70;;;;;;;;;;5065498;28;20144;-85
2022/06/03 13:50:28;;;;;;;4.40;2.10;;;;;;;;;;5070747;28;20375;-85
2022/06/03 13:52:55;;;;;;;4.40;2.13;;;;;;;;;;5060242;28;20057;-84
2022/06/03 13:55:28;;;;;;;5.03;2.33;;;;;;;;;;5070098;28;20052;-84
2022/06/03 13:58:03;;;;;;;4.30;2.20;;;;;;;;;;5052060;28;20049;-84
2022/06/03 14:00:36;;;;;;;4.82;2.30;;;;;;;;;;5063533;28;20272;-92
2022/06/03 14:03:04;;;;;;;4.18;1.98;;;;;;;;;;5051102;28;20564;-84
2022/06/03 14:05:37;;;;;;;6.00;2.38;;;;;;;;;;5050011;28;20048;-85
2022/06/03 14:08:10;;;;;;;3.45;2.33;;;;;;;;;;5059986;28;20044;-85
2022/06/03 14:10:48;;;;;;;6.13;2.35;;;;;;;;;;5055805;28;20091;-85
2022/06/03 14:13:14;;;;;;;5.65;2.60;;;;;;;;;;5031487;28;20042;-85
2022/06/03 14:15:57;;;;;;;5.22;2.40;;;;;;;;;;5047505;28;20045;-85
2022/06/03 14:18:42;;;;;;;3.78;2.40;;;;;;;;;;5050714;28;20107;-85
2022/06/03 14:21:08;;;;;;;5.70;2.65;;;;;;;;;;5062366;28;20046;-85
2022/06/03 14:23:38;;;;;;;4.95;2.40;;;;;;;;;;5066759;28;20404;-85
2022/06/03 14:26:06;;;;;;;4.25;2.35;;;;;;;;;;5066723;28;20395;-85
2022/06/03 14:28:38;;;;;;;4.65;2.70;;;;;;;;;;5051496;28;20048;-85
2022/06/03 14:31:14;;;;;;;5.32;2.50;;;;;;;;;;5061899;28;20048;-85
2022/06/03 14:33:42;;;;;;;4.05;2.17;;;;;;;;;;5049395;28;20037;-85
2022/06/03 14:36:08;;;;;;;4.40;2.20;;;;;;;;;;5050701;28;20045;-85
2022/06/03 14:38:38;;;;;;;7.85;2.67;;;;;;;;;;5050127;28;20102;-85
2022/06/03 14:41:12;;;;;;;4.28;2.50;;;;;;;;;;5064064;28;20052;-85
2022/06/03 14:43:39;;;;;;;6.13;2.85;;;;;;;;;;5051412;28;20045;-85
2022/06/03 14:46:13;;;;;;;4.57;2.25;;;;;;;;;;5049672;28;20128;-85
2022/06/03 14:48:44;;;;;;;9.48;3.00;;;;;;;;;;5059191;28;20114;-85
2022/06/03 14:51:31;;;;;;;4.65;2.83;;;;;;;;;;5065160;28;20060;-85
2022/06/03 14:54:01;;;;;;;4.15;2.28;;;;;;;;;;5039160;28;20525;-85
2022/06/03 14:56:32;;;;;;;3.97;2.08;;;;;;;;;;5049321;28;20055;-84
2022/06/03 14:59:01;;;;;;;4.47;2.67;;;;;;;;;;5049193;28;20060;-86
2022/06/03 15:01:40;;;;;;;4.47;2.40;;;;;;;;;;5050635;28;20126;-86
2022/06/03 15:04:11;;;;;;;4.50;2.33;;;;;;;;;;5041114;28;20386;-86
2022/06/03 15:06:51;;;;;;;4.68;2.50;;;;;;;;;;5062769;28;20059;-85
2022/06/03 15:09:17;;;;;;;3.70;2.20;;;;;;;;;;5050516;28;20311;-86
2022/06/03 15:11:45;;;;;;;4.22;2.38;;;;;;;;;;5065552;28;20060;-86
2022/06/03 15:14:13;;;;;;;3.30;2.10;;;;;;;;;;5065022;28;20044;-86
2022/06/03 15:16:51;;;;;;;3.70;2.50;;;;;;;;;;5060001;28;20040;-86
2022/06/03 15:19:32;;;;;;;4.70;2.40;;;;;;;;;;5044215;28;20507;-86
2022/06/03 15:21:58;;;;;;;4.20;2.50;;;;;;;;;;5048668;28;20116;-90
2022/06/03 15:24:25;;;;;;;5.32;2.58;;;;;;;;;;5043043;28;20477;-85
2022/06/03 15:26:52;;;;;;;4.35;2.42;;;;;;;;;;5050480;28;20063;-95
2022/06/03 15:29:22;;;;;;;7.60;2.53;;;;;;;;;;5049193;28;20107;-92
2022/06/03 15:31:51;;;;;;;6.35;2.80;;;;;;;;;;5047816;28;20053;-94
2022/06/03 15:34:19;;;;;;;4.43;2.63;;;;;;;;;;5045731;28;20076;-92
2022/06/03 15:36:46;;;;;;;3.50;2.33;;;;;;;;;;5049631;28;20114;-84
2022/06/03 15:39:15;;;;;;;4.25;2.58;;;;;;;;;;5051058;28;20060;-85
2022/06/03 15:41:46;;;;;;;7.40;2.78;;;;;;;;;;5054577;28;20048;-83
2022/06/03 15:44:13;;;;;;;6.15;2.40;;;;;;;;;;5070271;28;20055;-92
2022/06/03 15:46:58;;;;;;;4.55;2.70;;;;;;;;;;5065628;28;20053;-85
2022/06/03 15:49:25;;;;;;;4.85;2.63;;;;;;;;;;5063247;28;20509;-85
2022/06/03 15:51:51;;;;;;;5.60;2.38;;;;;;;;;;5048837;28;20063;-84
2022/06/03 15:54:24;;;;;;;5.82;2.53;;;;;;;;;;5050100;28;20080;-85
2022/06/03 15:57:09;;;;;;;6.47;2.85;;;;;;;;;;5030389;28;20059;-84